Airfield :
LOGIN :

Register | Disclaimer

   EN    FR    IT 

 










Legend :    VFR   Marginal VFR   IFR   Intensive IFR   Very Intensive IFR
Visi :
Ceiling :
>= 8 km
>= 3000ft
5 to 8 km
1000 to 3000 ft
1500m to 5 km
500 to 1000 ft
800 to 1500m
200 to 500 ft
< 800m
< 200 ft
Symbols :   Thunderstorms  Fog  Heavy snow  Heavy precipitations  Wind > 20 kt
SIGMETs :     Misc.  Thunderstorms  Icing  Turbulence  Mountain Waves  Volcanic Ashes







- Airport Elevation : 436 ft
- IATA code : BTS


LZIB - Bratislava

CURRENT METAR :
  • 212130Z 31010KT 9999 -SHRA SCT018 BKN032 21/18 Q1012 WS ALL RWY

EXPIRED METARs :
  • 212100Z 33008KT 9999 VCTS FEW017 FEW050CB BKN085 21/18 Q1011 WS ALL RWY
  • 212046Z 34007KT 9999 VCTS FEW018 FEW050CB BKN075 21/18 Q1011 RETS WS ALL RWY
  • 212030Z 01012KT 9999 -TSRA FEW015 FEW050CB BKN065 20/19 Q1010 RERA WS ALL RWY
  • 212001Z 01016G28KT 330V040 5000 TSRA FEW012 SCT033 SCT045CB 20/18 Q1010
  • 211945Z 01008KT 9999 -TSRA FEW010 SCT022 FEW045CB BKN075 21/18 Q1009 RERA WS ALL RWY
  • 211930Z 28023G35KT 5000 TSRA FEW013 SCT032 BKN045CB 21/16 Q1010
  • 211920Z 27006KT 210V310 9999 3000W TSRA FEW023 SCT046CB BKN051 27/18 Q1010
  • 211914Z 24005KT 210V310 9999 TS VCSH FEW026 FEW050CB BKN076 27/18 Q1009 WS R22
  • 211900Z 21006KT 9999 VCTS FEW026 FEW050CB BKN083 27/19 Q1009

TAF TAF LZIB
Valid from the 21 at 18:00 until the 22 at 18:00 UTC


211700Z 2118/2218 20010KT 9999 SCT040
PROB40
TEMPO 2118/2122 VRB20G30KT 4000 TSRA SCT035CB BKN040
BECMG 2118/2120 35013KT BKN040 BKN090
TEMPO 2118/2201 SHRA FEW037CB BKN045
BECMG 2201/2203 SCT045 SCT100
TEMPO 2212/2217 31015G25KT 6000 SHRA FEW033CB BKN040
No reported NOTAMs for that airfield.



MET'MAP, your aeronautical weather chart ! - Copyright ORBIFLY December 2007 - Disclaimer

ORBIFLY MET'MAP TEAM :

Programming & Development : Alexandra Zaïnal
Concept & Development : Baudouin d'Aumeries
Co-Development & Prog : Marc-Olivier Méhu
Technical & hardware support : Manuel Goepfert

Contact : metmap@orbifly.com




SOURCES & CREDITS :

   NOAA